N212 PANC-PANC
Flight info
| Callsign | N212 |
|---|---|
| Flight time | N/A |
| Altitude | 36000 |
| Route | TED YONEK NEARR TUCKS HOM ENA IVANN |
| Aircraft | B703/M-SDFGHRWY/C |
Departure
| Time | 2026-05-08 02:04 |
|---|---|
| Airport | Ted Stevens Anchorage International Airport (PANC) |
Arrival
| Time | N/A |
|---|---|
| Airport | Ted Stevens Anchorage International Airport (PANC) |
| Time | Latitude | Longitude | Altitude | Speed | Heading |
|---|---|---|---|---|---|
| 2026-05-08 01:59 | 61.16788 | -149.97351 | 159 ft | 0 kts | 270° |
| 2026-05-08 02:01 | 61.16788 | -149.97353 | 159 ft | 0 kts | 270° |
| 2026-05-08 02:01 | 61.16788 | -149.97478 | 159 ft | 27 kts | 270° |
| 2026-05-08 02:01 | 61.16788 | -149.98047 | 159 ft | 32 kts | 264° |
| 2026-05-08 02:02 | 61.16891 | -149.98347 | 160 ft | 26 kts | 335° |
| 2026-05-08 02:02 | 61.16903 | -149.98518 | 160 ft | 2 kts | 186° |
| 2026-05-08 02:02 | 61.16896 | -149.98518 | 160 ft | 0 kts | 179° |
| 2026-05-08 02:02 | 61.16895 | -149.98518 | 160 ft | 0 kts | 179° |
| 2026-05-08 02:03 | 61.16893 | -149.98518 | 160 ft | 0 kts | 179° |
| 2026-05-08 02:03 | 61.16866 | -149.98505 | 160 ft | 16 kts | 165° |
| 2026-05-08 02:03 | 61.16783 | -149.99136 | 160 ft | 120 kts | 268° |
| 2026-05-08 02:03 | 61.16760 | -150.01224 | 463 ft | 143 kts | 270° |
| 2026-05-08 02:04 | 61.16773 | -150.03444 | 405 ft | 191 kts | 274° |
| 2026-05-08 02:04 | 61.16676 | -150.06874 | 1279 ft | 253 kts | 263° |
| 2026-05-08 02:04 | 61.16808 | -150.10480 | 1216 ft | 257 kts | 285° |
| 2026-05-08 02:04 | 61.16328 | -150.13315 | 2460 ft | 251 kts | 161° |
| 2026-05-08 02:05 | 61.16287 | -150.09866 | 983 ft | 371 kts | 49° |
| 2026-05-08 02:05 | 61.17574 | -150.05637 | 1197 ft | 339 kts | 91° |
| 2026-05-08 02:05 | 61.17711 | -150.00067 | 2089 ft | 271 kts | 41° |
| 2026-05-08 02:05 | 61.19035 | -150.01022 | 1480 ft | 255 kts | 270° |
| 2026-05-08 02:06 | 61.19166 | -150.05162 | 1678 ft | 329 kts | 258° |
| 2026-05-08 02:06 | 61.17713 | -150.06815 | 2277 ft | 302 kts | 121° |
| 2026-05-08 02:06 | 61.18716 | -150.03134 | 1731 ft | 371 kts | 33° |
| 2026-05-08 02:06 | 61.18902 | -149.99214 | 666 ft | 395 kts | 149° |
| 2026-05-08 02:07 | 61.17374 | -149.98520 | 3097 ft | 355 kts | 203° |
| 2026-05-08 02:07 | 61.18463 | -150.02628 | 1609 ft | 456 kts | 6° |
| 2026-05-08 02:07 | 61.19942 | -149.99022 | 4207 ft | 361 kts | 95° |
| 2026-05-08 02:07 | 61.18052 | -149.96425 | 1491 ft | 443 kts | 197° |
| 2026-05-08 02:08 | 61.17098 | -150.01392 | 1002 ft | 488 kts | 317° |
| 2026-05-08 02:08 | 61.19572 | -149.99785 | 2007 ft | 436 kts | 86° |
| 2026-05-08 02:08 | 61.19170 | -149.94429 | 3229 ft | 350 kts | 54° |
| 2026-05-08 02:08 | 61.21327 | -149.92026 | 2800 ft | 368 kts | 32° |
| 2026-05-08 02:09 | 61.23615 | -149.92928 | 2665 ft | 414 kts | 308° |
| 2026-05-08 02:09 | 61.23015 | -149.97250 | 2417 ft | 406 kts | 184° |
| 2026-05-08 02:09 | 61.21986 | -149.93414 | 786 ft | 409 kts | 52° |
| 2026-05-08 02:09 | 61.24142 | -149.93730 | 909 ft | 397 kts | 309° |
| 2026-05-08 02:10 | 61.26208 | -149.94559 | 2420 ft | 376 kts | 62° |
| 2026-05-08 02:10 | 61.25257 | -149.90448 | 2969 ft | 377 kts | 185° |
| 2026-05-08 02:10 | 61.24320 | -149.94949 | 1959 ft | 416 kts | 274° |
| 2026-05-08 02:10 | 61.24572 | -150.00383 | 2609 ft | 358 kts | 277° |
| 2026-05-08 02:11 | 61.24859 | -150.05440 | 3000 ft | 360 kts | 267° |
| 2026-05-08 02:11 | 61.23903 | -150.06502 | 7126 ft | 271 kts | 121° |
| 2026-05-08 02:11 | 61.25158 | -150.05109 | 2119 ft | 431 kts | 335° |
| 2026-05-08 02:11 | 61.25990 | -150.07861 | 1023 ft | 426 kts | 259° |
| 2026-05-08 02:12 | 61.25931 | -150.08496 | 1087 ft | 309 kts | 261° |
| 2026-05-08 02:12 | 61.25784 | -150.13032 | 1698 ft | 326 kts | 271° |
| 2026-05-08 02:13 | 61.25914 | -150.17683 | 2478 ft | 334 kts | 295° |
| 2026-05-08 02:13 | 61.26272 | -150.16933 | 2569 ft | 225 kts | 208° |
| 2026-05-08 02:13 | 61.25901 | -150.19704 | 2169 ft | 206 kts | 271° |
| 2026-05-08 02:13 | 61.25923 | -150.22121 | 1414 ft | 185 kts | 233° |
| 2026-05-08 02:14 | 61.24974 | -150.22102 | 1447 ft | 167 kts | 114° |
| 2026-05-08 02:14 | 61.25612 | -150.20967 | 1531 ft | 179 kts | 306° |
| 2026-05-08 02:14 | 61.25966 | -150.23614 | 1805 ft | 206 kts | 285° |
| 2026-05-08 02:14 | 61.26746 | -150.26211 | 2290 ft | 223 kts | 328° |
| 2026-05-08 02:15 | 61.28090 | -150.27155 | 2336 ft | 207 kts | 313° |
| 2026-05-08 02:15 | 61.28727 | -150.28267 | 2290 ft | 194 kts | 6° |
| 2026-05-08 02:16 | 61.30127 | -150.27966 | 1690 ft | 269 kts | 7° |
| 2026-05-08 02:16 | 61.31365 | -150.29642 | 2439 ft | 249 kts | 249° |
| 2026-05-08 02:16 | 61.29724 | -150.30244 | 2511 ft | 307 kts | 164° |
| 2026-05-08 02:16 | 61.28011 | -150.27745 | 3338 ft | 346 kts | 75° |
| 2026-05-08 02:17 | 61.29382 | -150.27887 | 5798 ft | 306 kts | 256° |
| 2026-05-08 02:17 | 61.28439 | -150.29607 | 84 ft | 431 kts | 162° |
| 2026-05-08 02:17 | 61.28436 | -150.29607 | 15 ft | 2 kts | 165° |